createdAt,value
2017-05-19T00:00:22.539Z,0
2017-05-19T00:01:33.801Z,0
2017-05-19T00:02:44.807Z,0
2017-05-19T00:03:55.826Z,0
2017-05-19T00:05:06.854Z,0
2017-05-19T00:06:18.270Z,0
2017-05-19T00:07:29.329Z,0
2017-05-19T00:08:40.353Z,0
2017-05-19T00:09:51.575Z,0
2017-05-19T00:11:02.595Z,0
2017-05-19T00:12:13.795Z,0
2017-05-19T00:13:24.857Z,0
2017-05-19T00:14:35.868Z,0
2017-05-19T00:15:46.879Z,0
2017-05-19T00:16:58.103Z,0
2017-05-19T00:18:09.117Z,0
2017-05-19T00:19:20.176Z,0
2017-05-19T00:20:31.390Z,0
2017-05-19T00:21:42.399Z,0
2017-05-19T00:22:53.423Z,0
2017-05-19T00:24:04.638Z,0
2017-05-19T00:25:15.709Z,0
2017-05-19T00:26:26.927Z,0
2017-05-19T00:27:37.954Z,0
2017-05-19T00:28:48.968Z,0
2017-05-19T00:29:59.983Z,0
2017-05-19T00:31:11.043Z,0
2017-05-19T00:32:22.253Z,0
2017-05-19T00:33:33.273Z,0
2017-05-19T00:34:44.490Z,0
2017-05-19T00:35:55.495Z,0
2017-05-19T00:37:06.762Z,0
2017-05-19T00:38:17.784Z,0
2017-05-19T00:39:28.803Z,0
2017-05-19T00:40:39.819Z,0
2017-05-19T00:41:50.901Z,0
2017-05-19T00:43:02.171Z,0
2017-05-19T00:44:13.190Z,0
2017-05-19T00:45:24.201Z,0
2017-05-19T00:46:35.228Z,0
2017-05-19T00:47:46.237Z,0
2017-05-19T00:48:57.301Z,0
2017-05-19T00:50:08.326Z,0
2017-05-19T00:51:19.340Z,0
2017-05-19T00:52:30.365Z,0
2017-05-19T00:53:41.387Z,0
2017-05-19T00:54:52.457Z,0
2017-05-19T00:56:03.462Z,0
2017-05-19T00:57:14.481Z,0
2017-05-19T00:58:25.495Z,0
2017-05-19T00:59:36.502Z,0
2017-05-19T01:00:47.522Z,0
2017-05-19T01:01:58.532Z,0
2017-05-19T01:03:09.623Z,0
2017-05-19T01:04:20.657Z,0
2017-05-19T01:05:31.730Z,0
2017-05-19T01:06:42.951Z,0
2017-05-19T01:07:53.970Z,0
2017-05-19T01:09:04.981Z,0
2017-05-19T01:10:16.204Z,0
2017-05-19T01:11:27.265Z,0
2017-05-19T01:12:38.270Z,0
2017-05-19T01:13:49.277Z,0
2017-05-19T01:15:00.310Z,0
2017-05-19T01:16:11.312Z,0
2017-05-19T01:17:22.589Z,0
2017-05-19T01:18:33.606Z,0
2017-05-19T01:19:44.609Z,0
2017-05-19T01:20:55.827Z,0
2017-05-19T01:22:06.853Z,0
2017-05-19T01:23:17.907Z,0
2017-05-19T01:24:28.924Z,0
2017-05-19T01:25:39.923Z,0
2017-05-19T01:26:50.947Z,0
2017-05-19T01:28:02.159Z,0
2017-05-19T01:29:13.213Z,0
2017-05-19T01:30:24.233Z,0
2017-05-19T01:31:35.248Z,0
2017-05-19T01:32:46.260Z,0
2017-05-19T01:33:57.465Z,0
2017-05-19T01:35:08.548Z,0
2017-05-19T01:36:19.566Z,0
2017-05-19T01:37:30.574Z,0
2017-05-19T01:38:41.612Z,0
2017-05-19T01:39:52.623Z,0
2017-05-19T01:41:03.648Z,0
2017-05-19T01:42:14.667Z,0
2017-05-19T01:43:25.682Z,0
2017-05-19T01:44:36.718Z,0
2017-05-19T01:45:47.773Z,0
2017-05-19T01:46:58.789Z,0
2017-05-19T01:48:09.826Z,0
2017-05-19T01:49:20.864Z,0
2017-05-19T01:50:31.877Z,0
2017-05-19T01:51:42.946Z,0
2017-05-19T01:52:53.978Z,0
2017-05-19T01:54:04.996Z,0
2017-05-19T01:55:16.017Z,0
2017-05-19T01:56:27.043Z,0
2017-05-19T01:57:38.176Z,0
2017-05-19T01:58:49.194Z,0
2017-05-19T02:00:00.421Z,0
2017-05-19T02:01:11.436Z,0
2017-05-19T02:02:22.452Z,0
2017-05-19T02:03:33.535Z,0
2017-05-19T02:04:44.759Z,0
2017-05-19T02:05:55.783Z,0
2017-05-19T02:07:06.810Z,0
2017-05-19T02:08:17.819Z,0
2017-05-19T02:09:28.880Z,0
2017-05-19T02:10:39.905Z,0
2017-05-19T02:11:50.915Z,0
2017-05-19T02:13:01.932Z,0
2017-05-19T02:14:12.963Z,0
2017-05-19T02:15:24.018Z,0
2017-05-19T02:16:35.231Z,0
2017-05-19T02:17:46.455Z,0
2017-05-19T02:18:57.468Z,0
2017-05-19T02:20:08.483Z,0
2017-05-19T02:21:19.551Z,0
2017-05-19T02:22:30.559Z,0
2017-05-19T02:23:41.584Z,0
2017-05-19T02:24:52.602Z,0
2017-05-19T02:26:03.616Z,0
2017-05-19T02:27:14.685Z,0
2017-05-19T02:28:25.705Z,0
2017-05-19T02:29:36.727Z,0
2017-05-19T02:30:47.736Z,0
2017-05-19T02:31:58.753Z,0
2017-05-19T02:33:09.810Z,0
2017-05-19T02:34:21.041Z,0
2017-05-19T02:35:32.056Z,0
2017-05-19T02:36:43.078Z,0
2017-05-19T02:37:54.098Z,0
2017-05-19T02:39:05.161Z,0
2017-05-19T02:40:16.234Z,0
2017-05-19T02:41:27.446Z,0
2017-05-19T02:42:38.713Z,0
2017-05-19T02:43:49.734Z,0
2017-05-19T02:45:01.034Z,0
2017-05-19T02:46:12.049Z,0
2017-05-19T02:47:23.273Z,0
2017-05-19T02:48:34.532Z,0
2017-05-19T02:49:45.546Z,0
2017-05-19T02:50:56.559Z,0
2017-05-19T02:52:07.579Z,0
2017-05-19T02:53:18.797Z,0
2017-05-19T02:54:29.826Z,0
2017-05-19T02:55:41.095Z,0
2017-05-19T02:56:52.103Z,0
2017-05-19T02:58:03.123Z,0
2017-05-19T02:59:14.349Z,0
2017-05-19T03:00:25.765Z,0
2017-05-19T03:01:37.028Z,0
2017-05-19T03:02:48.043Z,0
2017-05-19T03:03:59.058Z,0
2017-05-19T03:05:10.075Z,0
2017-05-19T03:06:21.082Z,0
2017-05-19T03:07:32.154Z,0
2017-05-19T03:08:43.389Z,0
2017-05-19T03:09:54.458Z,0
2017-05-19T03:11:05.472Z,0
2017-05-19T03:12:16.494Z,0
2017-05-19T03:13:27.566Z,0
2017-05-19T03:14:38.775Z,0
2017-05-19T03:15:50.000Z,0
2017-05-19T03:17:01.018Z,0
2017-05-19T03:18:12.019Z,0
2017-05-19T03:19:23.085Z,0
2017-05-19T03:20:34.170Z,0
2017-05-19T03:21:45.388Z,0
2017-05-19T03:22:56.610Z,0
2017-05-19T03:24:07.837Z,0
2017-05-19T03:25:19.094Z,0
2017-05-19T03:26:30.304Z,0
2017-05-19T03:27:41.319Z,0
2017-05-19T03:28:52.337Z,0
2017-05-19T03:30:03.358Z,0
2017-05-19T03:31:14.619Z,0
2017-05-19T03:32:25.637Z,0
2017-05-19T03:33:36.668Z,0
2017-05-19T03:34:47.726Z,0
2017-05-19T03:35:58.740Z,0
2017-05-19T03:37:09.815Z,0
2017-05-19T03:38:20.834Z,0
2017-05-19T03:39:31.844Z,0
2017-05-19T03:40:42.859Z,0
2017-05-19T03:41:53.863Z,5
2017-05-19T03:43:04.935Z,5
2017-05-19T03:44:15.959Z,5
2017-05-19T03:45:26.976Z,5
2017-05-19T03:46:37.994Z,5
2017-05-19T03:47:49.217Z,5
2017-05-19T03:49:00.273Z,5
2017-05-19T03:50:11.283Z,5
2017-05-19T03:51:22.505Z,10
2017-05-19T03:52:33.524Z,10
2017-05-19T03:53:44.547Z,10
2017-05-19T03:54:55.617Z,10
2017-05-19T03:56:06.635Z,10
2017-05-19T03:57:17.645Z,15
2017-05-19T03:58:28.862Z,15
2017-05-19T03:59:39.882Z,20
2017-05-19T04:00:50.898Z,25
2017-05-19T04:02:01.934Z,30
2017-05-19T04:03:13.150Z,35
2017-05-19T04:04:24.158Z,45
2017-05-19T04:05:35.216Z,50
2017-05-19T04:06:46.261Z,55
2017-05-19T04:07:57.305Z,55
2017-05-19T04:09:08.318Z,60
2017-05-19T04:10:19.733Z,55
2017-05-19T04:11:30.796Z,55
2017-05-19T04:12:41.887Z,55
2017-05-19T04:13:52.907Z,60
2017-05-19T04:15:03.916Z,60
2017-05-19T04:16:14.933Z,60
2017-05-19T04:17:25.995Z,60
2017-05-19T04:18:37.005Z,55
2017-05-19T04:19:48.216Z,55
2017-05-19T04:20:59.257Z,45
2017-05-19T04:22:10.268Z,40
2017-05-19T04:23:21.331Z,40
2017-05-19T04:24:32.346Z,35
2017-05-19T04:25:43.383Z,35
2017-05-19T04:26:54.393Z,35
2017-05-19T04:28:05.412Z,35
2017-05-19T04:29:16.683Z,35
2017-05-19T04:30:27.908Z,35
2017-05-19T04:31:38.928Z,35
2017-05-19T04:32:49.950Z,30
2017-05-19T04:34:01.168Z,30
2017-05-19T04:35:12.429Z,30
2017-05-19T04:36:23.441Z,30
2017-05-19T04:37:34.458Z,35
2017-05-19T04:38:45.887Z,35
2017-05-19T04:39:57.115Z,35
2017-05-19T04:41:08.127Z,35
2017-05-19T04:42:19.333Z,35
2017-05-19T04:43:30.353Z,30
2017-05-19T04:44:41.373Z,25
2017-05-19T04:45:52.429Z,20
2017-05-19T04:47:03.658Z,20
2017-05-19T04:48:14.679Z,20
2017-05-19T04:49:25.683Z,20
2017-05-19T04:50:36.690Z,25
2017-05-19T04:51:47.762Z,25
2017-05-19T04:52:58.779Z,30
2017-05-19T04:54:09.783Z,35
2017-05-19T04:55:20.783Z,35
2017-05-19T04:56:31.788Z,40
2017-05-19T04:57:43.070Z,45
2017-05-19T04:58:54.089Z,50
2017-05-19T05:00:05.118Z,60
2017-05-19T05:01:16.334Z,65
2017-05-19T05:02:27.346Z,65
2017-05-19T05:03:38.416Z,65
2017-05-19T05:04:49.429Z,70
2017-05-19T05:06:00.441Z,70
2017-05-19T05:07:11.459Z,70
2017-05-19T05:08:22.475Z,70
2017-05-19T05:09:33.548Z,70
2017-05-19T05:10:44.568Z,70
2017-05-19T05:11:55.585Z,65
2017-05-19T05:13:06.607Z,60
2017-05-19T05:14:17.628Z,55
2017-05-19T05:15:28.744Z,55
2017-05-19T05:16:39.757Z,50
2017-05-19T05:17:50.783Z,50
2017-05-19T05:19:01.801Z,45
2017-05-19T05:20:12.821Z,45
2017-05-19T05:21:23.876Z,45
2017-05-19T05:22:34.891Z,45
2017-05-19T05:23:45.901Z,45
2017-05-19T05:24:56.924Z,45
2017-05-19T05:26:07.940Z,45
2017-05-19T05:27:19.001Z,45
2017-05-19T05:28:30.078Z,45
2017-05-19T05:29:41.099Z,45
2017-05-19T05:30:52.095Z,45
2017-05-19T05:32:03.129Z,50
2017-05-19T05:33:14.205Z,55
2017-05-19T05:34:25.227Z,55
2017-05-19T05:35:36.427Z,60
2017-05-19T05:36:47.443Z,60
2017-05-19T05:37:58.463Z,60
2017-05-19T05:39:09.531Z,60
2017-05-19T05:40:20.957Z,65
2017-05-19T05:41:31.967Z,65
2017-05-19T05:42:42.993Z,65
2017-05-19T05:43:54.005Z,60
2017-05-19T05:45:05.096Z,60
2017-05-19T05:46:16.113Z,70
2017-05-19T05:47:27.128Z,65
2017-05-19T05:48:38.349Z,65
2017-05-19T05:49:49.359Z,65
2017-05-19T05:51:00.379Z,65
2017-05-19T05:52:11.435Z,65
2017-05-19T05:53:22.450Z,65
2017-05-19T05:54:33.469Z,65
2017-05-19T05:55:44.527Z,65
2017-05-19T05:56:55.542Z,65
2017-05-19T05:58:06.553Z,65
2017-05-19T05:59:17.578Z,70
2017-05-19T06:00:28.596Z,70
2017-05-19T06:01:39.671Z,70
2017-05-19T06:02:50.883Z,70
2017-05-19T06:04:01.888Z,70
2017-05-19T06:05:12.905Z,75
2017-05-19T06:06:24.144Z,75
2017-05-19T06:07:35.193Z,75
2017-05-19T06:08:46.228Z,80
2017-05-19T06:09:57.249Z,75
2017-05-19T06:11:08.321Z,75
2017-05-19T06:12:19.336Z,80
2017-05-19T06:13:30.396Z,75
2017-05-19T06:14:41.621Z,70
2017-05-19T06:15:52.623Z,70
2017-05-19T06:17:03.836Z,70
2017-05-19T06:18:14.853Z,70
2017-05-19T06:19:25.926Z,70
2017-05-19T06:20:36.937Z,75
2017-05-19T06:21:47.950Z,75
2017-05-19T06:22:58.976Z,80
2017-05-19T06:24:10.198Z,80
2017-05-19T06:25:21.259Z,85
2017-05-19T06:26:32.279Z,85
2017-05-19T06:27:43.296Z,80
2017-05-19T06:28:54.508Z,80
2017-05-19T06:30:05.723Z,85
2017-05-19T06:31:16.787Z,85
2017-05-19T06:32:27.821Z,90
2017-05-19T06:33:38.831Z,95
2017-05-19T06:34:49.884Z,100
2017-05-19T06:36:00.896Z,105
2017-05-19T06:37:11.956Z,110
2017-05-19T06:38:22.975Z,110
2017-05-19T06:39:33.979Z,110
2017-05-19T06:40:44.986Z,115
2017-05-19T06:41:56.012Z,115
2017-05-19T06:43:07.291Z,120
2017-05-19T06:44:18.304Z,120
2017-05-19T06:45:29.359Z,125
2017-05-19T06:46:40.368Z,125
2017-05-19T06:47:51.384Z,125
2017-05-19T06:49:02.443Z,125
2017-05-19T06:50:13.657Z,125
2017-05-19T06:51:24.675Z,130
2017-05-19T06:52:35.679Z,130
2017-05-19T06:53:46.707Z,135
2017-05-19T06:54:57.792Z,135
2017-05-19T06:56:08.816Z,140
2017-05-19T06:57:19.868Z,140
2017-05-19T06:58:30.893Z,145
2017-05-19T06:59:41.915Z,150
2017-05-19T07:00:52.925Z,150
2017-05-19T07:02:03.931Z,150
2017-05-19T07:03:14.947Z,155
2017-05-19T07:04:26.173Z,155
2017-05-19T07:05:37.245Z,160
2017-05-19T07:06:48.263Z,165
2017-05-19T07:07:59.273Z,170
2017-05-19T07:09:10.485Z,175
2017-05-19T07:10:21.498Z,180
2017-05-19T07:11:32.766Z,180
2017-05-19T07:12:43.797Z,185
2017-05-19T07:13:54.807Z,195
2017-05-19T07:15:05.814Z,200
2017-05-19T07:16:16.817Z,205
2017-05-19T07:17:27.874Z,215
2017-05-19T07:18:38.887Z,215
2017-05-19T07:19:49.913Z,225
2017-05-19T07:21:00.932Z,230
2017-05-19T07:22:11.950Z,240
2017-05-19T07:23:23.229Z,250
2017-05-19T07:24:34.240Z,255
2017-05-19T07:25:45.265Z,270
2017-05-19T07:26:56.473Z,285
2017-05-19T07:28:07.493Z,290
2017-05-19T07:29:18.779Z,305
2017-05-19T07:30:29.856Z,325
2017-05-19T07:31:40.865Z,330
2017-05-19T07:32:51.883Z,340
2017-05-19T07:34:02.897Z,345
2017-05-19T07:35:13.955Z,355
2017-05-19T07:36:24.975Z,365
2017-05-19T07:37:36.196Z,345
2017-05-19T07:38:47.422Z,305
2017-05-19T07:39:58.442Z,300
2017-05-19T07:41:09.506Z,295
2017-05-19T07:42:20.524Z,265
2017-05-19T07:43:31.549Z,270
2017-05-19T07:44:42.566Z,210
2017-05-19T07:45:53.621Z,210
2017-05-19T07:47:04.943Z,215
2017-05-19T07:48:15.957Z,175
2017-05-19T07:49:26.979Z,150
2017-05-19T07:50:37.995Z,180
2017-05-19T07:51:49.007Z,220
2017-05-19T07:53:00.527Z,220
2017-05-19T07:54:11.536Z,225
2017-05-19T07:55:22.750Z,230
2017-05-19T07:56:33.761Z,230
2017-05-19T07:57:44.796Z,240
2017-05-19T07:58:55.869Z,230
2017-05-19T08:00:06.888Z,220
2017-05-19T08:01:18.099Z,225
2017-05-19T08:02:29.111Z,225
2017-05-19T08:03:40.128Z,200
2017-05-19T08:04:51.192Z,205
2017-05-19T08:06:02.413Z,210
2017-05-19T08:07:13.434Z,210
2017-05-19T08:08:24.504Z,200
2017-05-19T08:09:35.520Z,195
2017-05-19T08:10:46.731Z,185
2017-05-19T08:11:57.950Z,195
2017-05-19T08:13:08.976Z,195
2017-05-19T08:14:20.008Z,190
2017-05-19T08:15:31.075Z,190
2017-05-19T08:16:42.083Z,195
2017-05-19T08:17:53.309Z,205
2017-05-19T08:19:04.306Z,215
2017-05-19T08:20:15.525Z,225
2017-05-19T08:21:26.597Z,225
2017-05-19T08:22:37.813Z,225
2017-05-19T08:23:48.868Z,225
2017-05-19T08:24:59.889Z,225
2017-05-19T08:26:11.111Z,215
2017-05-19T08:27:22.176Z,200
2017-05-19T08:28:33.200Z,195
2017-05-19T08:29:44.219Z,195
2017-05-19T08:30:55.222Z,195
2017-05-19T08:32:06.238Z,210
2017-05-19T08:33:17.310Z,210
2017-05-19T08:34:28.327Z,190
2017-05-19T08:35:39.540Z,190
2017-05-19T08:36:50.758Z,195
2017-05-19T08:38:01.964Z,205
2017-05-19T08:39:13.245Z,220
2017-05-19T08:40:24.240Z,215
2017-05-19T08:41:35.259Z,215
2017-05-19T08:42:46.270Z,215
2017-05-19T08:43:57.280Z,220
2017-05-19T08:45:08.559Z,210
2017-05-19T08:46:19.578Z,215
2017-05-19T08:47:30.575Z,230
2017-05-19T08:48:41.588Z,235
2017-05-19T08:49:52.608Z,240
2017-05-19T08:51:03.613Z,220
2017-05-19T08:52:14.624Z,200
2017-05-19T08:53:25.847Z,185
2017-05-19T08:54:37.053Z,155
2017-05-19T08:55:48.124Z,150
2017-05-19T08:56:59.124Z,145
2017-05-19T08:58:10.140Z,145
2017-05-19T08:59:21.560Z,170
2017-05-19T09:00:32.781Z,165
2017-05-19T09:01:44.230Z,165
2017-05-19T09:02:55.249Z,140
2017-05-19T09:04:06.264Z,135
2017-05-19T09:05:17.318Z,140
2017-05-19T09:06:28.337Z,145
2017-05-19T09:07:39.615Z,140
2017-05-19T09:08:50.636Z,140
2017-05-19T09:10:01.645Z,140
2017-05-19T09:11:12.665Z,130
2017-05-19T09:12:23.879Z,120
2017-05-19T09:13:34.949Z,140
2017-05-19T09:14:45.985Z,160
2017-05-19T09:15:57.001Z,185
2017-05-19T09:17:08.017Z,220
2017-05-19T09:18:19.013Z,240
2017-05-19T09:19:30.289Z,240
2017-05-19T09:20:41.506Z,230
2017-05-19T09:21:52.518Z,225
2017-05-19T09:23:03.720Z,225
2017-05-19T09:24:14.936Z,235
2017-05-19T09:25:26.012Z,240
2017-05-19T09:26:37.423Z,270
2017-05-19T09:27:48.441Z,305
2017-05-19T09:28:59.447Z,310
2017-05-19T09:30:10.464Z,310
2017-05-19T09:31:21.536Z,315
2017-05-19T09:32:32.553Z,325
2017-05-19T09:33:43.563Z,335
2017-05-19T09:34:54.635Z,330
2017-05-19T09:36:05.648Z,325
2017-05-19T09:37:16.709Z,320
2017-05-19T09:38:27.745Z,315
2017-05-19T09:39:38.745Z,320
2017-05-19T09:40:49.756Z,325
2017-05-19T09:42:00.762Z,325
2017-05-19T09:43:11.842Z,330
2017-05-19T09:44:22.856Z,330
2017-05-19T09:45:33.874Z,325
2017-05-19T09:46:44.881Z,325
2017-05-19T09:47:55.892Z,330
2017-05-19T09:49:06.969Z,325
2017-05-19T09:50:17.984Z,325
2017-05-19T09:51:29.000Z,325
2017-05-19T09:52:40.022Z,325
2017-05-19T09:53:51.242Z,325
2017-05-19T09:55:02.296Z,330
2017-05-19T09:56:13.315Z,345
2017-05-19T09:57:24.322Z,340
2017-05-19T09:58:35.346Z,340
2017-05-19T09:59:46.398Z,345
2017-05-19T10:00:57.412Z,350
2017-05-19T10:02:08.629Z,360
2017-05-19T10:03:19.647Z,370
2017-05-19T10:04:30.652Z,385
2017-05-19T10:05:41.918Z,405
2017-05-19T10:06:52.931Z,415
2017-05-19T10:08:03.951Z,430
2017-05-19T10:09:15.164Z,430
2017-05-19T10:10:26.187Z,425
2017-05-19T10:11:37.646Z,410
2017-05-19T10:12:48.659Z,400
2017-05-19T10:13:59.662Z,390
2017-05-19T10:15:10.667Z,390
2017-05-19T10:16:21.693Z,390
2017-05-19T10:17:32.759Z,400
2017-05-19T10:18:43.775Z,410
2017-05-19T10:19:54.999Z,410
2017-05-19T10:21:06.016Z,420
2017-05-19T10:22:17.022Z,420
2017-05-19T10:23:28.091Z,410
2017-05-19T10:24:39.112Z,400
2017-05-19T10:25:50.331Z,390
2017-05-19T10:27:01.391Z,375
2017-05-19T10:28:12.411Z,365
2017-05-19T10:29:23.696Z,360
2017-05-19T10:30:34.715Z,360
2017-05-19T10:31:45.731Z,375
2017-05-19T10:32:56.743Z,370
2017-05-19T10:34:07.755Z,360
2017-05-19T10:35:18.816Z,350
2017-05-19T10:36:29.838Z,365
2017-05-19T10:37:40.857Z,380
2017-05-19T10:38:51.872Z,400
2017-05-19T10:40:02.887Z,400
2017-05-19T10:41:13.956Z,380
2017-05-19T10:42:25.173Z,360
2017-05-19T10:43:36.193Z,355
2017-05-19T10:44:47.619Z,315
2017-05-19T10:45:58.637Z,285
2017-05-19T10:47:09.689Z,265
2017-05-19T10:48:20.908Z,270
2017-05-19T10:49:31.931Z,270
2017-05-19T10:50:42.949Z,280
2017-05-19T10:51:53.972Z,285
2017-05-19T10:53:05.047Z,290
2017-05-19T10:54:16.063Z,290
2017-05-19T10:55:27.082Z,280
2017-05-19T10:56:38.084Z,265
2017-05-19T10:57:49.096Z,270
2017-05-19T10:59:00.193Z,280
2017-05-19T11:00:11.218Z,285
2017-05-19T11:01:22.235Z,295
2017-05-19T11:02:33.238Z,305
2017-05-19T11:03:44.255Z,315
2017-05-19T11:04:55.319Z,305
2017-05-19T11:06:06.337Z,285
2017-05-19T11:07:17.345Z,260
2017-05-19T11:08:28.567Z,235
2017-05-19T11:09:39.584Z,210
2017-05-19T11:10:50.597Z,195
2017-05-19T11:12:01.614Z,185
2017-05-19T11:13:12.637Z,180
2017-05-19T11:14:23.645Z,175
2017-05-19T11:15:34.715Z,155
2017-05-19T11:16:45.940Z,155
2017-05-19T11:17:57.163Z,165
2017-05-19T11:19:08.173Z,175
2017-05-19T11:20:19.396Z,180
2017-05-19T11:21:30.453Z,180
2017-05-19T11:22:41.470Z,175
2017-05-19T11:23:52.497Z,170
2017-05-19T11:25:03.509Z,170
2017-05-19T11:26:14.726Z,175
2017-05-19T11:27:25.778Z,180
2017-05-19T11:28:36.814Z,180
2017-05-19T11:29:47.840Z,170
2017-05-19T11:30:58.856Z,155
2017-05-19T11:32:09.880Z,150
2017-05-19T11:33:20.929Z,145
2017-05-19T11:34:31.953Z,130
2017-05-19T11:35:42.960Z,120
2017-05-19T11:36:53.983Z,115
2017-05-19T11:38:04.991Z,115
2017-05-19T11:39:16.046Z,115
2017-05-19T11:40:27.057Z,110
2017-05-19T11:41:38.276Z,110
2017-05-19T11:42:49.282Z,105
2017-05-19T11:44:00.298Z,110
2017-05-19T11:45:11.357Z,110
2017-05-19T11:46:22.443Z,110
2017-05-19T11:47:33.466Z,110
2017-05-19T11:48:44.481Z,100
2017-05-19T11:49:55.702Z,100
2017-05-19T11:51:06.917Z,105
2017-05-19T11:52:18.333Z,100
2017-05-19T11:53:29.356Z,95
2017-05-19T11:54:40.773Z,90
2017-05-19T11:55:51.830Z,85
2017-05-19T11:57:03.039Z,90
2017-05-19T11:58:14.046Z,85
2017-05-19T11:59:25.066Z,80
2017-05-19T12:00:36.083Z,85
2017-05-19T12:01:47.155Z,90
2017-05-19T12:02:58.174Z,90
2017-05-19T12:04:09.398Z,90
2017-05-19T12:05:20.401Z,100
2017-05-19T12:06:31.404Z,105
2017-05-19T12:07:42.667Z,115
2017-05-19T12:08:53.683Z,110
2017-05-19T12:10:04.698Z,110
2017-05-19T12:11:15.702Z,115
2017-05-19T12:12:26.725Z,105
2017-05-19T12:13:37.786Z,105
2017-05-19T12:14:48.806Z,105
2017-05-19T12:16:00.205Z,100
2017-05-19T12:17:11.606Z,95
2017-05-19T12:18:22.630Z,100
2017-05-19T12:19:33.891Z,110
2017-05-19T12:20:44.916Z,120
2017-05-19T12:21:55.983Z,135
2017-05-19T12:23:06.994Z,145
2017-05-19T12:24:18.010Z,145
2017-05-19T12:25:29.073Z,145
2017-05-19T12:26:40.088Z,130
2017-05-19T12:27:51.108Z,120
2017-05-19T12:29:02.110Z,110
2017-05-19T12:30:13.117Z,105
2017-05-19T12:31:24.169Z,110
2017-05-19T12:32:35.196Z,120
2017-05-19T12:33:46.203Z,125
2017-05-19T12:34:57.227Z,125
2017-05-19T12:36:08.451Z,120
2017-05-19T12:37:19.561Z,115
2017-05-19T12:38:30.583Z,110
2017-05-19T12:39:41.611Z,105
2017-05-19T12:40:52.633Z,100
2017-05-19T12:42:03.850Z,100
2017-05-19T12:43:14.911Z,100
2017-05-19T12:44:25.926Z,115
2017-05-19T12:45:36.990Z,145
2017-05-19T12:46:48.002Z,165
2017-05-19T12:47:59.212Z,180
2017-05-19T12:49:10.272Z,185
2017-05-19T12:50:21.288Z,185
2017-05-19T12:51:32.311Z,175
2017-05-19T12:52:43.335Z,155
2017-05-19T12:53:54.543Z,145
2017-05-19T12:55:05.803Z,140
2017-05-19T12:56:16.821Z,145
2017-05-19T12:57:27.828Z,145
2017-05-19T12:58:38.831Z,140
2017-05-19T12:59:49.849Z,130
2017-05-19T13:01:00.866Z,115
2017-05-19T13:02:12.075Z,115
2017-05-19T13:03:23.086Z,130
2017-05-19T13:04:34.111Z,120
2017-05-19T13:05:45.176Z,105
2017-05-19T13:06:56.184Z,100
2017-05-19T13:08:07.203Z,90
2017-05-19T13:09:18.223Z,90
2017-05-19T13:10:29.233Z,110
2017-05-19T13:11:40.691Z,130
2017-05-19T13:12:51.703Z,145
2017-05-19T13:14:02.919Z,155
2017-05-19T13:15:13.935Z,130
2017-05-19T13:16:24.936Z,105
2017-05-19T13:17:35.991Z,85
2017-05-19T13:18:47.017Z,70
2017-05-19T13:19:58.230Z,80
2017-05-19T13:21:09.240Z,100
2017-05-19T13:22:20.275Z,120
2017-05-19T13:23:31.337Z,120
2017-05-19T13:24:42.340Z,150
2017-05-19T13:25:53.358Z,190
2017-05-19T13:27:04.370Z,205
2017-05-19T13:28:15.384Z,195
2017-05-19T13:29:26.456Z,185
2017-05-19T13:30:37.474Z,170
2017-05-19T13:31:48.496Z,165
2017-05-19T13:32:59.504Z,160
2017-05-19T13:34:10.521Z,155
2017-05-19T13:35:21.595Z,155
2017-05-19T13:36:32.604Z,135
2017-05-19T13:37:43.620Z,130
2017-05-19T13:38:54.647Z,135
2017-05-19T13:40:05.652Z,145
2017-05-19T13:41:16.710Z,135
2017-05-19T13:42:27.735Z,125
2017-05-19T13:43:38.752Z,110
2017-05-19T13:44:50.026Z,90
2017-05-19T13:46:01.042Z,90
2017-05-19T13:47:12.109Z,85
2017-05-19T13:48:23.121Z,80
2017-05-19T13:49:34.366Z,80
2017-05-19T13:50:45.385Z,70
2017-05-19T13:51:56.414Z,60
2017-05-19T13:53:07.490Z,50
2017-05-19T13:54:18.494Z,55
2017-05-19T13:55:29.724Z,60
2017-05-19T13:56:40.939Z,60
2017-05-19T13:57:51.958Z,65
2017-05-19T13:59:03.009Z,65
2017-05-19T14:00:14.023Z,70
2017-05-19T14:01:25.026Z,80
2017-05-19T14:02:36.047Z,80
2017-05-19T14:03:47.066Z,80
2017-05-19T14:04:58.135Z,75
2017-05-19T14:06:09.164Z,80
2017-05-19T14:07:20.190Z,80
2017-05-19T14:08:31.193Z,85
2017-05-19T14:09:42.204Z,105
2017-05-19T14:10:53.226Z,120
2017-05-19T14:12:04.245Z,170
2017-05-19T14:13:15.514Z,185
2017-05-19T14:14:26.533Z,175
2017-05-19T14:15:37.999Z,165
2017-05-19T14:16:49.006Z,165
2017-05-19T14:18:00.215Z,155
2017-05-19T14:19:11.226Z,135
2017-05-19T14:20:22.243Z,135
2017-05-19T14:21:33.514Z,150
2017-05-19T14:22:44.523Z,145
2017-05-19T14:23:55.549Z,130
2017-05-19T14:25:06.777Z,120
2017-05-19T14:26:17.993Z,110
2017-05-19T14:27:29.062Z,90
2017-05-19T14:28:40.092Z,70
2017-05-19T14:29:51.096Z,50
2017-05-19T14:31:02.108Z,45
2017-05-19T14:32:13.136Z,40
2017-05-19T14:33:24.189Z,40
2017-05-19T14:34:35.207Z,40
2017-05-19T14:35:46.213Z,40
2017-05-19T14:36:57.218Z,40
2017-05-19T14:38:08.433Z,45
2017-05-19T14:39:19.497Z,80
2017-05-19T14:40:30.567Z,120
2017-05-19T14:41:41.578Z,155
2017-05-19T14:42:53.001Z,160
2017-05-19T14:44:04.012Z,160
2017-05-19T14:45:15.063Z,155
2017-05-19T14:46:26.338Z,150
2017-05-19T14:47:37.748Z,145
2017-05-19T14:48:48.967Z,155
2017-05-19T14:50:00.184Z,155
2017-05-19T14:51:11.246Z,135
2017-05-19T14:52:22.275Z,120
2017-05-19T14:53:33.298Z,115
2017-05-19T14:54:44.321Z,125
2017-05-19T14:55:55.326Z,100
2017-05-19T14:57:06.398Z,95
2017-05-19T14:58:17.404Z,100
2017-05-19T14:59:28.419Z,85
2017-05-19T15:00:39.647Z,75
2017-05-19T15:01:50.650Z,80
2017-05-19T15:03:01.913Z,75
2017-05-19T15:04:12.925Z,70
2017-05-19T15:05:23.936Z,55
2017-05-19T15:06:34.970Z,55
2017-05-19T15:07:45.989Z,50
2017-05-19T15:08:57.260Z,55
2017-05-19T15:10:08.265Z,60
2017-05-19T15:11:19.283Z,55
2017-05-19T15:12:30.492Z,75
2017-05-19T15:13:41.699Z,75
2017-05-19T15:14:52.758Z,75
2017-05-19T15:16:03.766Z,80
2017-05-19T15:17:14.787Z,80
2017-05-19T15:18:25.813Z,80
2017-05-19T15:19:36.830Z,75
2017-05-19T15:20:47.897Z,75
2017-05-19T15:21:59.120Z,75
2017-05-19T15:23:10.132Z,70
2017-05-19T15:24:21.142Z,65
2017-05-19T15:25:32.408Z,60
2017-05-19T15:26:43.409Z,60
2017-05-19T15:27:54.421Z,65
2017-05-19T15:29:05.437Z,60
2017-05-19T15:30:16.508Z,45
2017-05-19T15:31:27.576Z,40
2017-05-19T15:32:38.592Z,40
2017-05-19T15:33:49.597Z,35
2017-05-19T15:35:00.606Z,35
2017-05-19T15:36:11.631Z,35
2017-05-19T15:37:22.698Z,35
2017-05-19T15:38:33.924Z,40
2017-05-19T15:39:44.948Z,45
2017-05-19T15:40:55.963Z,50
2017-05-19T15:42:07.184Z,55
2017-05-19T15:43:18.236Z,60
2017-05-19T15:44:29.258Z,65
2017-05-19T15:45:40.265Z,65
2017-05-19T15:46:51.343Z,60
2017-05-19T15:48:02.361Z,60
2017-05-19T15:49:13.428Z,60
2017-05-19T15:50:24.440Z,60
2017-05-19T15:51:35.459Z,60
2017-05-19T15:52:46.465Z,55
2017-05-19T15:53:57.478Z,60
2017-05-19T15:55:08.535Z,60
2017-05-19T15:56:19.556Z,55
2017-05-19T15:57:30.771Z,55
2017-05-19T15:58:41.795Z,55
2017-05-19T15:59:52.813Z,50
2017-05-19T16:01:03.820Z,50
2017-05-19T16:02:14.820Z,50
2017-05-19T16:03:25.836Z,45
2017-05-19T16:04:36.840Z,45
2017-05-19T16:05:47.913Z,45
2017-05-19T16:06:59.133Z,45
2017-05-19T16:08:10.139Z,45
2017-05-19T16:09:21.173Z,50
2017-05-19T16:10:32.392Z,55
2017-05-19T16:11:43.454Z,55
2017-05-19T16:12:54.481Z,55
2017-05-19T16:14:05.893Z,50
2017-05-19T16:15:16.903Z,50
2017-05-19T16:16:27.926Z,50
2017-05-19T16:17:38.993Z,55
2017-05-19T16:18:50.005Z,55
2017-05-19T16:20:01.009Z,50
2017-05-19T16:21:12.023Z,50
2017-05-19T16:22:23.023Z,50
2017-05-19T16:23:34.081Z,55
2017-05-19T16:24:45.092Z,55
2017-05-19T16:25:56.312Z,55
2017-05-19T16:27:07.322Z,50
2017-05-19T16:28:18.329Z,50
2017-05-19T16:29:29.489Z,50
2017-05-19T16:30:40.493Z,55
2017-05-19T16:31:51.507Z,55
2017-05-19T16:33:02.761Z,60
2017-05-19T16:34:13.975Z,55
2017-05-19T16:35:25.028Z,55
2017-05-19T16:36:36.048Z,50
2017-05-19T16:37:47.258Z,50
2017-05-19T16:38:58.273Z,50
2017-05-19T16:40:09.494Z,50
2017-05-19T16:41:20.748Z,50
2017-05-19T16:42:31.756Z,45
2017-05-19T16:43:42.838Z,40
2017-05-19T16:44:54.064Z,35
2017-05-19T16:46:05.078Z,30